Time;durP1;ratioP1;P1;durP2;ratioP2;P2;SDS_P1;SDS_P2;PMS_P1;PMS_P2;Temp;Humidity;BMP_temperature;BMP_pressure;BME280_temperature;BME280_humidity;BME280_pressure;Samples;Min_cycle;Max_cycle;Signal;HPM_P1;HPM_P2
2022/05/11 00:00:43;;;;;;;5.72;2.65;;;;;;;16.44;60.24;101254.41;5077443;28;20020;-74
2022/05/11 00:03:09;;;;;;;9.38;2.78;;;;;;;16.42;61.06;101261.50;5086218;28;20024;-74
2022/05/11 00:05:35;;;;;;;5.53;2.92;;;;;;;16.37;61.13;101262.53;5092724;28;20035;-74
2022/05/11 00:08:00;;;;;;;9.45;2.88;;;;;;;16.32;61.29;101259.25;5094790;28;20430;-74
2022/05/11 00:10:26;;;;;;;8.32;2.97;;;;;;;16.31;61.67;101252.25;5092995;28;20123;-74
2022/05/11 00:12:51;;;;;;;5.20;3.17;;;;;;;16.30;61.90;101254.97;5093390;28;20132;-74
2022/05/11 00:15:22;;;;;;;7.28;3.30;;;;;;;16.19;63.46;101249.28;5091266;28;20027;-74
2022/05/11 00:17:47;;;;;;;4.72;2.70;;;;;;;16.17;62.43;101240.59;5092504;28;20016;-74
2022/05/11 00:20:14;;;;;;;4.43;3.08;;;;;;;16.17;62.72;101245.84;5091421;28;20415;-74
2022/05/11 00:22:40;;;;;;;7.72;3.20;;;;;;;16.23;63.30;101242.97;5094174;28;20055;-74
2022/05/11 00:25:08;;;;;;;6.80;3.33;;;;;;;16.22;63.23;101249.13;5094358;28;20054;-74
2022/05/11 00:27:33;;;;;;;6.78;2.60;;;;;;;16.18;62.07;101226.53;5092795;28;20487;-75
2022/05/11 00:29:59;;;;;;;7.82;2.92;;;;;;;16.24;61.45;101231.53;5087120;28;20028;-74
2022/05/11 00:32:25;;;;;;;5.95;2.88;;;;;;;16.23;62.65;101224.56;5091076;28;20111;-74
2022/05/11 00:34:51;;;;;;;4.75;3.08;;;;;;;16.23;62.28;101227.19;5092024;28;20075;-74
2022/05/11 00:37:17;;;;;;;6.10;2.72;;;;;;;16.22;61.64;101226.34;5091078;28;20073;-74
2022/05/11 00:39:42;;;;;;;6.50;2.95;;;;;;;16.23;61.42;101225.41;5092494;28;20027;-74
2022/05/11 00:42:08;;;;;;;9.90;3.22;;;;;;;16.21;61.04;101229.03;5093182;28;20028;-74
2022/05/11 00:44:33;;;;;;;4.45;2.63;;;;;;;16.21;60.92;101218.50;5093250;28;20422;-75
2022/05/11 00:47:01;;;;;;;10.43;3.03;;;;;;;16.22;61.64;101213.19;5092582;28;20016;-74
2022/05/11 00:49:45;;;;;;;6.57;2.90;;;;;;;16.20;60.21;101217.66;5090416;28;20093;-74
2022/05/11 00:52:41;;;;;;;7.47;2.65;;;;;;;16.23;60.47;101198.25;5091781;28;20107;-75
2022/05/11 00:55:11;;;;;;;7.97;2.80;;;;;;;16.23;60.93;101200.91;5080323;28;20033;-74
2022/05/11 00:57:52;;;;;;;8.13;2.92;;;;;;;16.22;60.75;101204.44;5093413;28;20032;-75
2022/05/11 01:00:20;;;;;;;7.78;2.90;;;;;;;16.19;60.53;101192.28;5087721;28;20107;-74
2022/05/11 01:02:51;;;;;;;7.70;2.63;;;;;;;16.19;60.51;101201.94;5091480;28;20451;-74
2022/05/11 01:05:17;;;;;;;7.85;3.03;;;;;;;16.18;60.67;101194.94;5091386;28;20103;-74
2022/05/11 01:07:42;;;;;;;6.57;2.38;;;;;;;16.18;61.05;101200.22;5093343;28;20026;-74
2022/05/11 01:10:08;;;;;;;6.00;2.60;;;;;;;16.19;61.30;101199.31;5092637;28;20380;-74
2022/05/11 01:12:44;;;;;;;5.95;2.75;;;;;;;16.18;60.80;101194.94;5092857;28;20078;-74
2022/05/11 01:15:12;;;;;;;13.43;3.13;;;;;;;16.15;60.42;101188.03;5075852;28;20032;-74
2022/05/11 01:17:39;;;;;;;5.65;2.90;;;;;;;16.10;60.52;101185.59;5089397;28;20028;-74
2022/05/11 01:20:07;;;;;;;5.03;2.67;;;;;;;16.13;61.33;101182.84;5093252;28;20117;-74
2022/05/11 01:22:43;;;;;;;12.68;2.60;;;;;;;16.17;61.58;101177.47;5092916;28;20024;-74
2022/05/11 01:25:10;;;;;;;5.20;2.40;;;;;;;16.17;62.03;101177.47;5091858;28;20036;-74
2022/05/11 01:27:42;;;;;;;6.68;2.35;;;;;;;16.16;62.35;101184.50;5087918;28;20290;-74
2022/05/11 01:30:12;;;;;;;5.82;2.42;;;;;;;16.11;61.70;101171.53;5088928;28;20028;-74
2022/05/11 01:32:40;;;;;;;4.72;2.47;;;;;;;16.09;62.34;101170.75;5077613;28;20043;-74
2022/05/11 01:35:39;;;;;;;4.70;2.33;;;;;;;16.05;61.22;101174.41;5086243;28;20032;-74
2022/05/11 01:38:26;;;;;;;3.22;2.35;;;;;;;16.12;62.05;101170.63;5071886;28;20508;-74
2022/05/11 01:40:51;;;;;;;4.57;2.22;;;;;;;16.10;62.34;101175.09;5072504;28;20039;-74
2022/05/11 01:43:21;;;;;;;3.83;2.40;;;;;;;16.08;62.02;101176.06;5084460;28;20024;-74
2022/05/11 01:45:47;;;;;;;5.32;2.28;;;;;;;16.05;62.00;101174.41;5088282;28;20028;-74
2022/05/11 01:48:12;;;;;;;4.78;2.63;;;;;;;15.99;62.59;101172.06;5092647;28;20020;-74
2022/05/11 01:50:37;;;;;;;6.10;2.55;;;;;;;15.94;63.03;101168.75;5090791;28;20092;-74
2022/05/11 01:53:04;;;;;;;7.78;2.65;;;;;;;15.97;63.47;101170.41;5090990;28;20024;-75
2022/05/11 01:55:30;;;;;;;3.83;2.60;;;;;;;15.96;62.43;101166.03;5090363;28;20043;-74
2022/05/11 01:57:55;;;;;;;7.35;2.95;;;;;;;15.97;61.96;101170.41;5076053;28;20044;-74
2022/05/11 02:00:20;;;;;;;3.92;2.60;;;;;;;16.00;62.15;101170.28;5086163;28;20028;-74
2022/05/11 02:02:46;;;;;;;6.75;2.90;;;;;;;15.94;62.61;101160.84;5089615;28;20488;-74
2022/05/11 02:07:55;;;;;;;10.85;3.33;;;;;;;15.99;62.17;101168.53;5091891;28;20043;-74
2022/05/11 02:10:23;;;;;;;5.95;2.95;;;;;;;15.94;62.42;101162.63;5091551;28;20028;-74
2022/05/11 02:12:50;;;;;;;8.02;3.28;;;;;;;15.94;62.54;101163.50;5091378;28;20393;-74
2022/05/11 02:15:17;;;;;;;8.05;3.05;;;;;;;15.92;63.00;101160.06;5089859;28;20024;-74
2022/05/11 02:17:43;;;;;;;10.18;2.97;;;;;;;15.90;62.65;101160.13;5090713;28;20047;-74
2022/05/11 02:20:10;;;;;;;7.57;3.78;;;;;;;15.88;63.02;101158.47;5091477;28;20028;-74
2022/05/11 02:22:36;;;;;;;9.13;3.42;;;;;;;15.85;62.65;101159.44;5089714;28;20119;-74
2022/05/11 02:25:03;;;;;;;6.22;3.50;;;;;;;15.91;62.89;101153.09;5092391;28;20072;-74
2022/05/11 02:27:31;;;;;;;7.45;3.15;;;;;;;15.86;62.46;101158.56;5086568;28;20105;-74
2022/05/11 02:29:57;;;;;;;6.35;2.75;;;;;;;15.85;62.75;101162.06;5078753;28;20069;-74
2022/05/11 02:32:23;;;;;;;7.88;3.00;;;;;;;15.82;62.44;101158.72;5087139;28;20047;-74
2022/05/11 02:37:32;;;;;;;10.82;3.25;;;;;;;15.83;63.24;101153.41;5085574;28;20551;-74
2022/05/11 02:39:57;;;;;;;5.32;2.85;;;;;;;15.80;62.25;101156.16;5089499;28;20111;-74
2022/05/11 02:42:23;;;;;;;10.73;3.15;;;;;;;15.77;62.96;101150.19;5091011;28;20384;-74
2022/05/11 02:44:48;;;;;;;6.63;3.25;;;;;;;15.75;62.71;101150.22;5090516;28;20070;-74
2022/05/11 02:47:14;;;;;;;6.00;3.10;;;;;;;15.70;63.18;101146.94;5090521;28;20028;-74
2022/05/11 02:49:39;;;;;;;6.53;3.20;;;;;;;15.73;64.08;101148.56;5090394;28;20032;-74
2022/05/11 02:52:05;;;;;;;4.47;2.90;;;;;;;15.75;63.54;101154.63;5092127;28;20070;-74
2022/05/11 02:54:30;;;;;;;4.50;2.80;;;;;;;15.72;63.47;101145.09;5090932;28;20035;-74
2022/05/11 02:56:55;;;;;;;8.63;3.25;;;;;;;15.75;63.25;101154.63;5089922;28;20032;-74
2022/05/11 02:59:21;;;;;;;4.45;2.70;;;;;;;15.73;62.98;101151.19;5090801;28;20052;-74
2022/05/11 03:01:51;;;;;;;8.80;3.08;;;;;;;15.71;63.37;101151.28;5088356;28;20024;-74
2022/05/11 03:04:16;;;;;;;8.45;2.92;;;;;;;15.67;63.64;101141.81;5086529;28;20493;-75
2022/05/11 03:06:42;;;;;;;6.88;2.97;;;;;;;15.66;63.71;101142.66;5089532;28;20043;-74
2022/05/11 03:09:08;;;;;;;8.57;3.15;;;;;;;15.69;63.43;101150.47;5092140;28;20035;-74
2022/05/11 03:11:34;;;;;;;5.47;2.67;;;;;;;15.70;64.25;101143.47;5095356;28;20103;-74
2022/05/11 03:13:59;;;;;;;6.00;2.42;;;;;;;15.67;64.47;101136.53;5095688;28;20055;-74
2022/05/11 03:16:24;;;;;;;3.80;2.45;;;;;;;15.65;63.96;101133.94;5085109;28;20070;-74
2022/05/11 03:18:49;;;;;;;4.55;3.05;;;;;;;15.62;64.59;101127.94;5090798;28;20036;-74
2022/05/11 03:21:15;;;;;;;5.20;2.55;;;;;;;15.62;63.87;101127.94;5075132;28;20039;-74
2022/05/11 03:23:42;;;;;;;7.18;2.60;;;;;;;15.52;64.04;101113.47;5074350;28;20027;-74
2022/05/11 03:26:07;;;;;;;5.07;2.42;;;;;;;15.58;64.72;101121.97;5082807;28;20476;-74
2022/05/11 03:28:33;;;;;;;6.03;2.97;;;;;;;15.57;64.69;101120.25;5087682;28;20089;-74
2022/05/11 03:30:58;;;;;;;5.13;2.78;;;;;;;15.55;65.03;101116.81;5084697;28;20040;-74
2022/05/11 03:36:07;;;;;;;;;;;;;;;15.57;63.14;101109.75;5076576;28;20703;-74
2022/05/11 03:38:32;;;;;;;5.07;2.60;;;;;;;15.51;64.79;101120.50;5094001;28;20002;-74
2022/05/11 03:40:58;;;;;;;6.13;2.60;;;;;;;15.51;64.67;101115.25;5094274;28;20028;-74
2022/05/11 03:43:23;;;;;;;6.75;3.33;;;;;;;15.50;64.22;101108.28;5093003;28;20024;-75
2022/05/11 03:45:48;;;;;;;8.02;2.90;;;;;;;15.48;64.73;101109.25;5092861;28;20060;-74
2022/05/11 03:48:16;;;;;;;5.65;2.95;;;;;;;15.46;64.90;101101.41;5091541;28;20107;-74
2022/05/11 03:50:42;;;;;;;8.65;2.50;;;;;;;15.47;65.50;101105.78;5093153;28;20036;-74
2022/05/11 03:53:07;;;;;;;8.27;2.55;;;;;;;15.43;65.17;101102.41;5093794;28;20057;-74
2022/05/11 03:55:32;;;;;;;4.55;2.70;;;;;;;15.35;65.65;101098.38;5093546;28;20494;-74
2022/05/11 03:57:57;;;;;;;5.82;2.30;;;;;;;15.30;66.06;101095.91;5091399;28;20055;-74
2022/05/11 04:00:24;;;;;;;6.03;3.15;;;;;;;15.28;65.29;101102.16;5093702;28;20081;-74
2022/05/11 04:02:52;;;;;;;7.53;2.70;;;;;;;15.22;65.90;101106.72;5092513;28;20020;-74
2022/05/11 04:05:18;;;;;;;5.40;2.67;;;;;;;15.19;65.26;101106.84;5093593;28;20491;-74
2022/05/11 04:07:43;;;;;;;8.68;2.50;;;;;;;15.18;66.08;101109.53;5093183;28;20036;-74
2022/05/11 04:10:11;;;;;;;8.63;2.72;;;;;;;15.10;66.50;101103.69;5093837;28;20038;-74
2022/05/11 04:12:37;;;;;;;3.75;2.70;;;;;;;15.03;66.74;101105.69;5093403;28;20032;-74
2022/05/11 04:15:04;;;;;;;6.43;2.80;;;;;;;14.96;67.45;101107.69;5094684;28;20027;-74
2022/05/11 04:17:29;;;;;;;5.43;2.70;;;;;;;14.87;67.76;101101.94;5088750;28;20039;-74
2022/05/11 04:19:55;;;;;;;3.10;2.50;;;;;;;14.72;67.25;101100.75;5092274;28;20099;-74
2022/05/11 04:22:21;;;;;;;6.22;2.75;;;;;;;14.66;68.05;101107.06;5091802;28;20019;-74
2022/05/11 04:24:46;;;;;;;4.50;2.70;;;;;;;14.60;67.96;101098.56;5093153;28;20565;-74
2022/05/11 04:27:11;;;;;;;4.45;2.47;;;;;;;14.57;68.26;101103.91;5081480;28;20021;-74
2022/05/11 04:29:38;;;;;;;5.57;2.70;;;;;;;14.61;68.58;101101.13;5082825;28;20039;-75
2022/05/11 04:32:04;;;;;;;9.25;3.13;;;;;;;14.55;68.92;101100.47;5094387;28;20024;-74
2022/05/11 04:34:29;;;;;;;6.07;2.75;;;;;;;14.50;68.83;101111.13;5093021;28;20510;-74
2022/05/11 04:36:55;;;;;;;5.97;2.88;;;;;;;14.47;69.10;101105.97;5084584;28;20021;-74
2022/05/11 04:39:20;;;;;;;5.00;3.10;;;;;;;14.43;69.33;101097.38;5073754;28;20152;-74
2022/05/11 04:41:45;;;;;;;5.68;3.10;;;;;;;14.42;69.05;101095.66;5072666;28;20032;-74
2022/05/11 04:44:11;;;;;;;10.50;3.00;;;;;;;14.42;69.18;101097.41;5081204;28;20024;-74
2022/05/11 04:46:37;;;;;;;7.05;3.08;;;;;;;14.46;69.70;101105.13;5092362;28;20024;-74
2022/05/11 04:49:23;;;;;;;4.10;3.08;;;;;;;14.49;69.12;101107.66;5089879;28;20092;-74
2022/05/11 04:52:01;;;;;;;9.75;3.15;;;;;;;14.46;70.35;101091.16;5092702;28;20036;-74
2022/05/11 04:54:26;;;;;;;6.97;2.97;;;;;;;14.57;70.49;101102.16;5091390;28;20488;-74
2022/05/11 04:56:52;;;;;;;7.15;2.95;;;;;;;14.58;70.00;101095.97;5091576;28;20031;-74
2022/05/11 04:59:17;;;;;;;7.65;3.10;;;;;;;14.68;70.70;101097.38;5093263;28;20127;-74
2022/05/11 05:01:42;;;;;;;7.13;2.72;;;;;;;14.70;70.21;101092.91;5091522;28;20035;-74
2022/05/11 05:04:08;;;;;;;5.28;3.20;;;;;;;14.74;69.77;101106.78;5093455;28;20028;-74
2022/05/11 05:06:34;;;;;;;6.90;3.08;;;;;;;14.79;69.36;101104.00;5087009;28;20030;-74
2022/05/11 05:09:01;;;;;;;4.60;2.63;;;;;;;14.81;69.68;101096.91;5091883;28;20027;-74
2022/05/11 05:11:27;;;;;;;3.35;2.47;;;;;;;14.86;69.89;101101.09;5092902;28;20036;-74
2022/05/11 05:13:52;;;;;;;7.30;3.20;;;;;;;14.91;69.31;101100.91;5092994;28;20027;-74
2022/05/11 05:16:17;;;;;;;5.22;2.88;;;;;;;14.95;68.47;101103.38;5091986;28;20040;-74
2022/05/11 05:18:43;;;;;;;4.13;2.78;;;;;;;14.92;69.44;101097.38;5090068;28;20533;-74
2022/05/11 05:21:08;;;;;;;5.15;3.30;;;;;;;15.01;69.01;101107.56;5091452;28;20118;-74
2022/05/11 05:23:35;;;;;;;4.70;2.92;;;;;;;15.03;68.35;101103.06;5081889;28;20497;-75
2022/05/11 05:26:02;;;;;;;6.82;3.00;;;;;;;15.09;68.23;101109.88;5093412;28;20062;-74
2022/05/11 05:31:14;;;;;;;5.35;3.03;;;;;;;15.17;67.23;101116.56;5071384;28;20515;-74
2022/05/11 05:33:40;;;;;;;5.70;3.05;;;;;;;15.25;67.67;101116.25;5072653;28;20031;-74
2022/05/11 05:36:05;;;;;;;4.03;2.97;;;;;;;15.27;68.14;101116.19;5071386;28;20103;-74
2022/05/11 05:38:31;;;;;;;7.15;3.08;;;;;;;15.30;67.14;101116.06;5090041;28;20115;-74
2022/05/11 05:40:56;;;;;;;6.40;3.10;;;;;;;15.34;67.61;101122.94;5093000;28;20100;-74
2022/05/11 05:43:22;;;;;;;4.45;3.28;;;;;;;15.37;67.29;101121.03;5089761;28;20135;-75
2022/05/11 05:45:52;;;;;;;4.70;2.92;;;;;;;15.43;68.06;101117.28;5091361;28;20032;-75
2022/05/11 05:48:19;;;;;;;4.40;3.47;;;;;;;15.48;66.79;101120.63;5088448;28;20028;-74
2022/05/11 05:50:45;;;;;;;8.18;3.15;;;;;;;15.51;66.83;101115.25;5078354;28;20411;-74
2022/05/11 05:53:11;;;;;;;7.07;3.40;;;;;;;15.54;66.05;101117.75;5085258;28;20028;-75
2022/05/11 05:55:36;;;;;;;10.27;3.50;;;;;;;15.59;66.86;101121.03;5072218;28;20127;-74
2022/05/11 05:58:02;;;;;;;4.60;3.10;;;;;;;15.64;66.39;101110.34;5079545;28;20073;-75
2022/05/11 06:00:28;;;;;;;5.90;3.05;;;;;;;15.69;64.98;101121.56;5091480;28;20028;-75
2022/05/11 06:02:56;;;;;;;7.15;3.15;;;;;;;15.72;65.80;101116.16;5092116;28;20027;-75
2022/05/11 06:05:22;;;;;;;5.07;3.13;;;;;;;15.77;64.85;101123.88;5084934;28;20100;-75
2022/05/11 06:07:47;;;;;;;3.92;2.72;;;;;;;15.79;65.12;101127.28;5076663;28;20484;-75
2022/05/11 06:10:13;;;;;;;5.35;2.83;;;;;;;15.83;64.35;101131.53;5071826;28;20043;-75
2022/05/11 06:12:38;;;;;;;4.80;2.80;;;;;;;15.85;64.75;101121.78;5080742;28;20035;-75
2022/05/11 06:15:05;;;;;;;10.52;2.53;;;;;;;15.90;62.91;101112.81;5073985;28;20027;-76
2022/05/11 06:17:31;;;;;;;3.95;2.20;;;;;;;15.95;62.95;101119.63;5087498;28;20055;-76
2022/05/11 06:19:56;;;;;;;5.43;2.40;;;;;;;15.97;61.46;101113.41;5090969;28;20031;-76
2022/05/11 06:22:22;;;;;;;6.55;2.30;;;;;;;15.98;62.44;101123.00;5079210;28;20082;-76
2022/05/11 06:24:47;;;;;;;5.07;2.30;;;;;;;16.02;61.71;101115.81;5088319;28;20020;-76
2022/05/11 06:27:18;;;;;;;4.22;2.30;;;;;;;16.04;61.37;101109.59;5090973;28;20012;-76
2022/05/11 06:29:52;;;;;;;6.78;2.40;;;;;;;16.08;60.93;101119.06;5091916;28;20119;-76
2022/05/11 06:32:19;;;;;;;5.47;2.35;;;;;;;16.18;59.98;101114.25;5091594;28;20393;-76
2022/05/11 06:34:45;;;;;;;5.53;1.85;;;;;;;16.25;60.22;101114.84;5087900;28;20039;-76
2022/05/11 06:37:10;;;;;;;9.38;2.15;;;;;;;16.33;60.84;101096.97;5079097;28;20032;-76
2022/05/11 06:39:35;;;;;;;6.40;2.00;;;;;;;16.36;60.86;101099.47;5080909;28;20032;-76
2022/05/11 06:42:01;;;;;;;5.22;2.45;;;;;;;16.47;59.06;101097.22;5091873;28;20426;-76
2022/05/11 06:44:26;;;;;;;10.80;2.47;;;;;;;16.49;59.89;101098.03;5094433;28;20152;-76
2022/05/11 06:46:51;;;;;;;7.95;2.17;;;;;;;16.57;59.61;101102.94;5092998;28;20376;-76
2022/05/11 06:49:17;;;;;;;7.10;2.30;;;;;;;16.61;58.65;101092.22;5087695;28;20024;-75
2022/05/11 06:51:42;;;;;;;5.78;1.70;;;;;;;16.72;58.97;101097.00;5075938;28;20086;-75
2022/05/11 06:59:35;;;;;;;8.05;2.47;;;;;;;16.88;58.08;101097.19;5074332;28;20075;-75
2022/05/11 07:02:03;;;;;;;5.03;1.60;;;;;;;16.92;58.15;101096.13;5073246;28;20492;-75
2022/05/11 07:04:29;;;;;;;3.35;1.90;;;;;;;16.95;56.76;101098.63;5074192;28;20016;-75
2022/05/11 07:06:55;;;;;;;7.00;2.20;;;;;;;17.00;57.71;101101.03;5073942;28;20427;-75
2022/05/11 07:09:22;;;;;;;4.90;2.30;;;;;;;17.01;55.45;101100.13;5073052;28;20056;-75
2022/05/11 07:14:31;;;;;;;8.55;1.88;;;;;;;17.17;56.92;101102.91;5073594;28;20049;-75
2022/05/11 07:16:56;;;;;;;7.57;2.00;;;;;;;17.29;56.16;101111.06;5073869;28;20028;-75
2022/05/11 07:19:23;;;;;;;8.05;2.50;;;;;;;17.30;54.58;101099.63;5073797;28;20032;-75
2022/05/11 07:21:52;;;;;;;4.63;2.10;;;;;;;17.28;56.10;101109.38;5073043;28;20024;-75
2022/05/11 07:24:17;;;;;;;5.97;2.22;;;;;;;17.37;57.22;101094.06;5073590;28;20043;-75
2022/05/11 07:26:43;;;;;;;7.30;2.63;;;;;;;17.58;57.06;101095.63;5073840;28;20387;-75
2022/05/11 07:29:08;;;;;;;10.25;2.70;;;;;;;17.71;54.79;101104.66;5073170;28;20029;-75
2022/05/11 07:31:33;;;;;;;6.90;2.50;;;;;;;17.78;55.67;101110.53;5073275;28;20039;-75
2022/05/11 07:33:59;;;;;;;7.15;2.30;;;;;;;17.87;55.43;101094.25;5073816;28;20029;-75
2022/05/11 07:36:24;;;;;;;7.00;2.30;;;;;;;17.87;54.95;101096.88;5073034;28;20429;-75
2022/05/11 07:38:50;;;;;;;5.68;2.08;;;;;;;17.90;54.30;101106.44;5073500;28;20040;-75
2022/05/11 07:41:15;;;;;;;9.25;2.05;;;;;;;17.87;52.50;101107.44;5073833;28;20044;-75
2022/05/11 07:43:41;;;;;;;7.88;2.30;;;;;;;17.85;53.17;101085.53;5072590;28;20024;-75
2022/05/11 07:46:06;;;;;;;7.72;2.30;;;;;;;17.90;52.47;101094.09;5073729;28;20111;-75
2022/05/11 07:48:31;;;;;;;12.27;2.63;;;;;;;17.96;51.94;101096.44;5073002;28;20407;-75
2022/05/11 07:50:57;;;;;;;9.05;2.42;;;;;;;18.07;52.47;101092.38;5072804;28;20039;-75
2022/05/11 07:53:22;;;;;;;5.68;1.95;;;;;;;18.24;52.55;101098.50;5073236;28;20082;-75
2022/05/11 07:59:51;;;;;;;9.05;2.15;;;;;;;18.47;52.72;101102.63;5072805;28;20384;-75
2022/05/11 08:01:16;;;;;;;10.98;2.08;;;;;;;18.63;52.45;101088.59;5074471;28;20131;-75
2022/05/11 08:03:42;;;;;;;5.82;1.85;;;;;;;18.63;49.33;101093.88;5074167;28;20119;-75
2022/05/11 08:06:07;;;;;;;13.57;2.38;;;;;;;18.66;51.03;101099.84;5073645;28;20028;-75
2022/05/11 08:08:32;;;;;;;15.45;2.53;;;;;;;18.70;51.39;101113.72;5073537;28;20028;-75
2022/05/11 08:10:57;;;;;;;12.20;2.55;;;;;;;18.70;49.95;101103.16;5073723;28;20036;-75
2022/05/11 08:13:24;;;;;;;10.02;2.78;;;;;;;18.81;49.85;101108.78;5074280;28;20468;-75
2022/05/11 08:15:50;;;;;;;10.73;2.50;;;;;;;19.03;49.89;101099.66;5074176;28;20024;-75
2022/05/11 08:18:18;;;;;;;10.38;2.40;;;;;;;19.12;51.42;101094.72;5073059;28;20383;-75
2022/05/11 08:20:46;;;;;;;7.80;2.53;;;;;;;19.06;50.96;101107.44;5074045;28;20039;-75
2022/05/11 08:23:12;;;;;;;11.73;2.50;;;;;;;18.78;51.24;101093.09;5073961;28;20029;-75
2022/05/11 08:25:39;;;;;;;9.38;2.70;;;;;;;18.68;50.81;101099.78;5073170;28;20073;-75
2022/05/11 08:28:19;;;;;;;6.32;2.28;;;;;;;18.77;50.15;101099.31;5074107;28;20040;-75
2022/05/11 08:33:31;;;;;;;6.68;2.40;;;;;;;18.89;51.47;101093.34;5072991;28;21053;-75
2022/05/11 08:36:03;;;;;;;7.78;2.30;;;;;;;18.88;49.90;101096.09;5073769;28;20435;-75
2022/05/11 08:38:32;;;;;;;12.65;2.90;;;;;;;18.77;49.74;101088.75;5073530;28;20036;-75
2022/05/11 08:41:29;;;;;;;9.77;3.13;;;;;;;18.83;49.64;101091.03;5073019;28;20020;-75
2022/05/11 08:44:01;;;;;;;14.95;3.05;;;;;;;18.88;50.62;101089.00;5073678;28;20099;-75
2022/05/11 08:46:43;;;;;;;9.95;2.78;;;;;;;19.05;50.91;101095.16;5072846;28;20024;-75
2022/05/11 08:49:21;;;;;;;8.73;2.83;;;;;;;19.17;49.40;101091.84;5073555;28;20017;-75
2022/05/11 08:51:58;;;;;;;10.93;2.72;;;;;;;19.21;49.99;101090.75;5073362;28;20432;-75
2022/05/11 08:54:40;;;;;;;9.80;2.92;;;;;;;19.16;48.39;101098.06;5072599;28;20077;-75
2022/05/11 08:57:11;;;;;;;7.93;2.40;;;;;;;19.15;49.45;101085.78;5073346;28;20545;-75
2022/05/11 08:59:37;;;;;;;10.00;2.50;;;;;;;19.30;50.52;101094.69;5073132;28;20467;-75
2022/05/11 09:02:14;;;;;;;7.28;2.90;;;;;;;19.42;48.98;101088.66;5072472;28;20108;-75
2022/05/11 09:04:51;;;;;;;9.07;2.50;;;;;;;19.53;48.33;101090.72;5073172;28;20021;-75
2022/05/11 09:07:17;;;;;;;13.27;2.53;;;;;;;19.66;48.75;101081.19;5071429;28;20082;-75
2022/05/11 09:09:42;;;;;;;14.10;2.42;;;;;;;19.81;47.06;101084.72;5072822;28;20020;-75
2022/05/11 09:12:10;;;;;;;13.82;2.92;;;;;;;19.84;46.88;101084.53;5073148;28;20020;-75
2022/05/11 09:14:44;;;;;;;7.72;2.80;;;;;;;19.82;49.00;101075.88;5071150;28;20032;-75
2022/05/11 09:17:30;;;;;;;8.88;2.92;;;;;;;19.99;47.38;101074.88;5078868;28;20085;-75
2022/05/11 09:20:07;;;;;;;11.32;3.17;;;;;;;20.11;48.09;101082.09;5074117;28;20037;-75
2022/05/11 09:22:37;;;;;;;6.63;2.67;;;;;;;20.23;47.86;101076.03;5082846;28;20031;-75
2022/05/11 09:25:28;;;;;;;8.05;3.00;;;;;;;20.41;47.17;101067.94;5093209;28;20573;-75
2022/05/11 09:28:31;;;;;;;7.85;2.78;;;;;;;20.75;47.16;101064.94;5067577;28;20032;-75
2022/05/11 09:31:12;;;;;;;8.32;2.95;;;;;;;20.86;47.32;101072.19;5086995;28;20032;-75
2022/05/11 09:33:54;;;;;;;9.15;3.25;;;;;;;20.93;44.95;101075.34;5071006;28;20511;-73
2022/05/11 09:36:37;;;;;;;7.32;2.97;;;;;;;20.84;47.22;101062.66;5076937;28;20043;-76
2022/05/11 09:39:12;;;;;;;9.37;3.13;;;;;;;20.98;47.37;101065.28;5079791;28;20032;-75
2022/05/11 09:41:40;;;;;;;7.05;2.72;;;;;;;21.09;46.26;101064.59;5075042;28;20028;-75
2022/05/11 09:44:16;;;;;;;12.63;3.47;;;;;;;21.40;46.29;101055.53;5070280;28;20384;-75
2022/05/11 09:46:41;;;;;;;6.45;2.70;;;;;;;21.57;46.47;101068.53;5071694;28;20071;-75
2022/05/11 09:49:26;;;;;;;9.80;3.35;;;;;;;21.51;45.17;101059.19;5072034;28;20060;-75
2022/05/11 09:51:56;;;;;;;7.05;3.13;;;;;;;21.33;45.65;101056.88;5070505;28;20032;-75
2022/05/11 09:54:32;;;;;;;7.22;2.92;;;;;;;21.41;46.22;101054.59;5075392;28;20028;-75
2022/05/11 09:56:59;;;;;;;10.93;3.50;;;;;;;21.17;46.01;101060.50;5075904;28;20125;-75
2022/05/11 09:59:28;;;;;;;7.60;3.15;;;;;;;21.05;45.84;101055.97;5075355;28;20090;-75
2022/05/11 10:02:12;;;;;;;6.75;2.88;;;;;;;21.21;46.95;101045.25;5070340;28;20028;-76
2022/05/11 10:04:43;;;;;;;9.07;3.42;;;;;;;21.45;46.66;101050.78;5069582;28;20021;-76
2022/05/11 10:07:14;;;;;;;7.75;2.92;;;;;;;21.83;45.04;101050.03;5071001;28;20460;-76
2022/05/11 10:09:55;;;;;;;7.45;2.80;;;;;;;21.94;46.14;101043.06;5069762;28;20418;-75
2022/05/11 10:12:26;;;;;;;9.48;2.85;;;;;;;21.93;42.96;101048.47;5071328;28;20036;-76
2022/05/11 10:23:42;;;;;;;5.78;2.90;;;;;;;22.35;45.37;101051.81;5078797;28;20165;-75
2022/05/11 10:26:15;;;;;;;6.97;2.70;;;;;;;22.77;45.99;101039.13;5079761;28;20395;-75
2022/05/11 10:29:03;;;;;;;6.40;2.45;;;;;;;23.22;43.43;101042.94;5089013;28;20373;-75
2022/05/11 10:31:43;;;;;;;9.10;2.95;;;;;;;23.46;41.84;101031.44;5072769;28;20432;-75
2022/05/11 10:34:23;;;;;;;8.07;3.00;;;;;;;23.13;41.24;101039.16;5072171;28;20024;-75
2022/05/11 10:37:15;;;;;;;6.38;2.90;;;;;;;23.07;42.20;101026.28;5085505;28;20035;-76
2022/05/11 10:40:09;;;;;;;8.35;2.90;;;;;;;23.06;43.25;101021.94;5082899;28;20047;-75
2022/05/11 10:42:36;;;;;;;6.50;2.90;;;;;;;22.91;43.10;101018.53;5086718;28;20507;-75
2022/05/11 10:45:14;;;;;;;11.57;3.35;;;;;;;22.98;41.50;101028.78;5090774;28;20391;-76
2022/05/11 10:48:12;;;;;;;11.85;3.13;;;;;;;22.65;41.95;101025.72;5085092;28;20028;-75
2022/05/11 10:50:50;;;;;;;10.73;2.95;;;;;;;22.61;43.66;101020.75;5026551;28;20119;-75
2022/05/11 10:53:46;;;;;;;8.60;3.05;;;;;;;22.61;41.73;101016.28;5070120;28;20039;-75
2022/05/11 10:56:25;;;;;;;8.98;2.70;;;;;;;22.74;44.24;101020.75;5069888;28;20036;-75
2022/05/11 10:58:58;;;;;;;5.28;2.75;;;;;;;22.85;43.12;101016.31;5071566;28;20106;-75
2022/05/11 11:01:32;;;;;;;7.60;3.00;;;;;;;22.85;42.19;101005.69;5070812;28;20131;-75
2022/05/11 11:04:21;;;;;;;7.85;3.33;;;;;;;23.05;42.78;101001.66;5071446;28;20038;-75
2022/05/11 11:07:11;;;;;;;9.40;3.03;;;;;;;23.38;42.67;101000.09;5070557;28;20048;-75
2022/05/11 11:10:13;;;;;;;10.20;3.15;;;;;;;23.57;40.94;100992.41;5088660;28;20060;-75
2022/05/11 11:13:26;;;;;;;8.45;2.85;;;;;;;23.63;39.66;101003.56;5087816;28;20036;-75
2022/05/11 11:15:52;;;;;;;10.90;3.53;;;;;;;23.72;41.47;100992.25;5016002;28;20064;-75
2022/05/11 11:18:28;;;;;;;10.38;3.42;;;;;;;23.96;40.92;100998.34;5082534;28;20028;-75
2022/05/11 11:20:58;;;;;;;8.85;2.83;;;;;;;24.13;39.52;100986.38;5087250;28;20027;-75
2022/05/11 11:23:23;;;;;;;9.02;2.78;;;;;;;24.34;39.38;100991.84;5078445;28;20024;-75
2022/05/11 11:25:57;;;;;;;12.40;2.97;;;;;;;24.41;38.24;100994.91;5071330;28;20108;-76
2022/05/11 11:28:28;;;;;;;8.70;2.53;;;;;;;24.64;39.40;100982.41;5072906;28;20054;-76
2022/05/11 11:31:00;;;;;;;3.50;2.40;;;;;;;24.93;40.02;100991.56;5088530;28;20073;-75
2022/05/11 11:33:48;;;;;;;9.60;2.53;;;;;;;25.12;38.02;100979.44;5074405;28;20033;-76
2022/05/11 11:36:32;;;;;;;10.48;3.08;;;;;;;25.35;37.39;100986.38;5061722;28;20040;-76
2022/05/11 11:38:59;;;;;;;4.80;2.90;;;;;;;25.30;37.24;100979.72;5084670;28;20133;-76
2022/05/11 11:41:49;;;;;;;8.25;2.65;;;;;;;25.34;34.73;100967.78;5088639;28;20024;-76
2022/05/11 11:44:20;;;;;;;10.98;2.80;;;;;;;25.99;36.47;100960.53;5081046;28;20102;-76
2022/05/11 11:46:46;;;;;;;9.18;2.95;;;;;;;26.68;34.78;100960.66;5090294;28;20028;-76
2022/05/11 11:49:37;;;;;;;4.95;2.50;;;;;;;27.84;34.10;100959.84;5093430;28;20035;-76
2022/05/11 11:52:06;;;;;;;10.77;2.95;;;;;;;29.19;30.28;100964.69;5093585;28;20480;-76
2022/05/11 11:54:37;;;;;;;7.53;2.50;;;;;;;30.24;29.64;100948.47;5084218;28;20025;-76
2022/05/11 11:57:20;;;;;;;5.65;2.40;;;;;;;31.63;29.29;100940.66;5073774;28;20024;-76
2022/05/11 11:59:58;;;;;;;7.82;2.72;;;;;;;31.91;25.82;100946.50;5073618;28;20505;-75
2022/05/11 12:02:34;;;;;;;10.38;2.70;;;;;;;32.40;26.41;100949.00;5080050;28;20039;-76
2022/05/11 12:05:19;;;;;;;7.80;2.50;;;;;;;32.13;25.13;100941.38;5075411;28;20033;-75
2022/05/11 12:16:25;;;;;;;9.85;2.97;;;;;;;33.27;24.08;100927.22;5094495;28;20142;-76
2022/05/11 12:18:51;;;;;;;10.40;2.80;;;;;;;33.52;23.60;100921.63;5085455;28;20107;-76